sensor_id;sensor_type;location;lat;lon;timestamp;pressure;altitude;pressure_sealevel;temperature;humidity
4085;BME280;2057;50.858;6.572;2022-08-25T00:00:27;100430.44;;;23.34;54.84
4085;BME280;2057;50.858;6.572;2022-08-25T00:02:53;100429.66;;;23.18;54.60
4085;BME280;2057;50.858;6.572;2022-08-25T00:05:19;100427.06;;;23.18;55.06
4085;BME280;2057;50.858;6.572;2022-08-25T00:07:44;100431.34;;;23.30;54.76
4085;BME280;2057;50.858;6.572;2022-08-25T00:10:10;100430.47;;;23.36;54.45
4085;BME280;2057;50.858;6.572;2022-08-25T00:12:35;100434.81;;;23.28;54.58
4085;BME280;2057;50.858;6.572;2022-08-25T00:15:00;100438.25;;;23.28;54.27
4085;BME280;2057;50.858;6.572;2022-08-25T00:17:26;100433.09;;;23.21;54.38
4085;BME280;2057;50.858;6.572;2022-08-25T00:19:52;100430.47;;;23.25;54.36
4085;BME280;2057;50.858;6.572;2022-08-25T00:22:18;100429.66;;;23.14;54.40
4085;BME280;2057;50.858;6.572;2022-08-25T00:24:43;100427.97;;;23.00;54.39
4085;BME280;2057;50.858;6.572;2022-08-25T00:27:08;100420.22;;;22.94;54.98
4085;BME280;2057;50.858;6.572;2022-08-25T00:29:36;100429.72;;;22.92;54.81
4085;BME280;2057;50.858;6.572;2022-08-25T00:32:02;100426.28;;;22.88;54.71
4085;BME280;2057;50.858;6.572;2022-08-25T00:34:34;100427.13;;;22.87;54.85
4085;BME280;2057;50.858;6.572;2022-08-25T00:37:01;100428.06;;;22.69;55.96
4085;BME280;2057;50.858;6.572;2022-08-25T00:39:27;100428.91;;;22.78;55.57
4085;BME280;2057;50.858;6.572;2022-08-25T00:41:55;100430.66;;;22.52;55.73
4085;BME280;2057;50.858;6.572;2022-08-25T00:44:23;100429.78;;;22.50;56.03
4085;BME280;2057;50.858;6.572;2022-08-25T00:46:51;100434.09;;;22.64;56.21
4085;BME280;2057;50.858;6.572;2022-08-25T00:49:26;100432.38;;;22.67;56.13
4085;BME280;2057;50.858;6.572;2022-08-25T00:54:27;100434.09;;;22.68;55.58
4085;BME280;2057;50.858;6.572;2022-08-25T00:56:55;100440.16;;;22.53;56.12
4085;BME280;2057;50.858;6.572;2022-08-25T00:59:23;100440.16;;;22.53;56.34
4085;BME280;2057;50.858;6.572;2022-08-25T01:01:51;100440.16;;;22.47;56.24
4085;BME280;2057;50.858;6.572;2022-08-25T01:04:18;100435.00;;;22.43;56.65
4085;BME280;2057;50.858;6.572;2022-08-25T01:06:45;100433.25;;;22.48;56.61
4085;BME280;2057;50.858;6.572;2022-08-25T01:09:12;100441.00;;;22.43;56.96
4085;BME280;2057;50.858;6.572;2022-08-25T01:11:39;100434.97;;;22.53;56.76
4085;BME280;2057;50.858;6.572;2022-08-25T01:14:06;100440.16;;;22.53;56.98
4085;BME280;2057;50.858;6.572;2022-08-25T01:16:33;100434.13;;;22.48;57.21
4085;BME280;2057;50.858;6.572;2022-08-25T01:18:59;100429.81;;;22.44;57.35
4085;BME280;2057;50.858;6.572;2022-08-25T01:21:27;100434.97;;;22.50;57.40
4085;BME280;2057;50.858;6.572;2022-08-25T01:23:55;100428.94;;;22.45;56.93
4085;BME280;2057;50.858;6.572;2022-08-25T01:26:26;100432.38;;;22.46;57.25
4085;BME280;2057;50.858;6.572;2022-08-25T01:28:52;100433.25;;;22.52;57.09
4085;BME280;2057;50.858;6.572;2022-08-25T01:31:37;100430.66;;;22.51;56.78
4085;BME280;2057;50.858;6.572;2022-08-25T01:34:05;100430.66;;;22.51;57.09
4085;BME280;2057;50.858;6.572;2022-08-25T01:36:32;100428.06;;;22.55;57.21
4085;BME280;2057;50.858;6.572;2022-08-25T01:38:57;100434.09;;;22.47;57.65
4085;BME280;2057;50.858;6.572;2022-08-25T01:44:10;100434.97;;;22.32;58.47
4085;BME280;2057;50.858;6.572;2022-08-25T01:46:35;100438.41;;;22.34;57.92
4085;BME280;2057;50.858;6.572;2022-08-25T01:49:02;100434.97;;;22.32;58.20
4085;BME280;2057;50.858;6.572;2022-08-25T01:51:33;100433.22;;;22.37;58.38
4085;BME280;2057;50.858;6.572;2022-08-25T01:53:58;100436.69;;;22.34;58.05
4085;BME280;2057;50.858;6.572;2022-08-25T01:56:24;100436.69;;;22.27;58.61
4085;BME280;2057;50.858;6.572;2022-08-25T01:58:49;100436.69;;;22.30;58.18
4085;BME280;2057;50.858;6.572;2022-08-25T02:01:21;100436.69;;;22.31;57.86
4085;BME280;2057;50.858;6.572;2022-08-25T02:03:48;100441.84;;;22.20;58.61
4085;BME280;2057;50.858;6.572;2022-08-25T02:06:17;100447.03;;;22.11;59.04
4085;BME280;2057;50.858;6.572;2022-08-25T02:08:43;100447.00;;;22.02;59.07
4085;BME280;2057;50.858;6.572;2022-08-25T02:11:10;100444.38;;;21.78;60.03
4085;BME280;2057;50.858;6.572;2022-08-25T02:13:37;100443.50;;;21.59;61.19
4085;BME280;2057;50.858;6.572;2022-08-25T02:16:03;100443.50;;;21.59;61.46
4085;BME280;2057;50.858;6.572;2022-08-25T02:18:29;100445.13;;;21.42;61.86
4085;BME280;2057;50.858;6.572;2022-08-25T02:20:54;100441.59;;;21.21;62.93
4085;BME280;2057;50.858;6.572;2022-08-25T02:23:20;100443.22;;;20.97;64.21
4085;BME280;2057;50.858;6.572;2022-08-25T02:25:45;100450.09;;;20.98;64.48
4085;BME280;2057;50.858;6.572;2022-08-25T02:28:11;100453.56;;;21.04;64.16
4085;BME280;2057;50.858;6.572;2022-08-25T02:30:38;100448.41;;;21.00;64.70
4085;BME280;2057;50.858;6.572;2022-08-25T02:33:04;100438.78;;;20.78;65.14
4085;BME280;2057;50.858;6.572;2022-08-25T02:35:29;100434.28;;;20.52;66.43
4085;BME280;2057;50.858;6.572;2022-08-25T02:37:55;100437.78;;;20.60;65.45
4085;BME280;2057;50.858;6.572;2022-08-25T02:40:21;100437.66;;;20.42;65.92
4085;BME280;2057;50.858;6.572;2022-08-25T02:42:47;100436.59;;;20.16;66.93
4085;BME280;2057;50.858;6.572;2022-08-25T02:45:13;100432.38;;;20.23;66.90
4085;BME280;2057;50.858;6.572;2022-08-25T02:47:39;100432.44;;;20.34;65.94
4085;BME280;2057;50.858;6.572;2022-08-25T02:50:06;100428.91;;;20.19;67.13
4085;BME280;2057;50.858;6.572;2022-08-25T02:52:32;100431.41;;;20.12;67.44
4085;BME280;2057;50.858;6.572;2022-08-25T02:54:57;100428.81;;;20.10;67.21
4085;BME280;2057;50.858;6.572;2022-08-25T02:57:22;100421.09;;;20.12;67.05
4085;BME280;2057;50.858;6.572;2022-08-25T02:59:48;100422.81;;;20.14;67.11
4085;BME280;2057;50.858;6.572;2022-08-25T03:02:14;100424.50;;;20.12;67.00
4085;BME280;2057;50.858;6.572;2022-08-25T03:04:41;100415.94;;;20.12;67.26
4085;BME280;2057;50.858;6.572;2022-08-25T03:07:09;100414.97;;;19.99;67.90
4085;BME280;2057;50.858;6.572;2022-08-25T03:09:34;100407.34;;;20.11;66.75
4085;BME280;2057;50.858;6.572;2022-08-25T03:11:59;100409.66;;;19.85;67.95
4085;BME280;2057;50.858;6.572;2022-08-25T03:14:26;100412.31;;;19.91;67.58
4085;BME280;2057;50.858;6.572;2022-08-25T03:16:51;100412.88;;;19.64;68.25
4085;BME280;2057;50.858;6.572;2022-08-25T03:19:16;100410.28;;;19.65;68.83
4085;BME280;2057;50.858;6.572;2022-08-25T03:21:42;100407.66;;;19.57;68.59
4085;BME280;2057;50.858;6.572;2022-08-25T03:24:09;100401.03;;;19.80;67.67
4085;BME280;2057;50.858;6.572;2022-08-25T03:26:35;100406.97;;;19.77;67.24
4085;BME280;2057;50.858;6.572;2022-08-25T03:29:26;100413.06;;;19.84;67.81
4085;BME280;2057;50.858;6.572;2022-08-25T03:31:53;100414.59;;;19.63;68.43
4085;BME280;2057;50.858;6.572;2022-08-25T03:34:20;100414.44;;;19.51;68.55
4085;BME280;2057;50.858;6.572;2022-08-25T03:36:48;100405.63;;;19.30;68.89
4085;BME280;2057;50.858;6.572;2022-08-25T03:39:15;100401.13;;;19.13;69.46
4085;BME280;2057;50.858;6.572;2022-08-25T03:41:40;100401.63;;;18.86;71.61
4085;BME280;2057;50.858;6.572;2022-08-25T03:44:07;100400.47;;;18.64;71.50
4085;BME280;2057;50.858;6.572;2022-08-25T03:46:41;100396.84;;;18.51;73.00
4085;BME280;2057;50.858;6.572;2022-08-25T03:49:09;100387.72;;;18.72;72.37
4085;BME280;2057;50.858;6.572;2022-08-25T03:51:40;100380.22;;;18.89;71.86
4085;BME280;2057;50.858;6.572;2022-08-25T03:54:07;100381.38;;;19.09;70.04
4085;BME280;2057;50.858;6.572;2022-08-25T03:56:33;100373.59;;;19.05;70.41
4085;BME280;2057;50.858;6.572;2022-08-25T03:58:58;100381.38;;;19.09;70.30
4085;BME280;2057;50.858;6.572;2022-08-25T04:01:24;100380.66;;;19.21;69.81
4085;BME280;2057;50.858;6.572;2022-08-25T04:03:50;100376.41;;;19.26;69.48
4085;BME280;2057;50.858;6.572;2022-08-25T04:06:17;100385.97;;;19.38;68.66
4085;BME280;2057;50.858;6.572;2022-08-25T04:08:43;100377.06;;;19.10;69.84
4085;BME280;2057;50.858;6.572;2022-08-25T04:11:16;100382.09;;;18.98;70.46
4085;BME280;2057;50.858;6.572;2022-08-25T04:13:42;100385.16;;;18.72;72.12
4085;BME280;2057;50.858;6.572;2022-08-25T04:16:11;100383.03;;;18.44;73.67
4085;BME280;2057;50.858;6.572;2022-08-25T04:18:37;100375.84;;;18.81;72.50
4085;BME280;2057;50.858;6.572;2022-08-25T04:21:04;100380.22;;;18.89;71.41
4085;BME280;2057;50.858;6.572;2022-08-25T04:23:31;100392.63;;;19.19;70.66
4085;BME280;2057;50.858;6.572;2022-08-25T04:25:56;100387.31;;;19.05;70.79
4085;BME280;2057;50.858;6.572;2022-08-25T04:28:22;100391.78;;;19.22;70.69
4085;BME280;2057;50.858;6.572;2022-08-25T04:30:47;100382.16;;;19.02;71.07
4085;BME280;2057;50.858;6.572;2022-08-25T04:33:13;100390.16;;;19.28;70.11
4085;BME280;2057;50.858;6.572;2022-08-25T04:35:38;100387.72;;;19.39;69.45
4085;BME280;2057;50.858;6.572;2022-08-25T04:38:05;100387.59;;;19.30;69.90
4085;BME280;2057;50.858;6.572;2022-08-25T04:40:31;100396.22;;;19.34;69.90
4085;BME280;2057;50.858;6.572;2022-08-25T04:42:56;100398.16;;;19.50;69.15
4085;BME280;2057;50.858;6.572;2022-08-25T04:45:21;100399.06;;;19.57;68.74
4085;BME280;2057;50.858;6.572;2022-08-25T04:47:47;100390.59;;;19.67;68.41
4085;BME280;2057;50.858;6.572;2022-08-25T04:50:12;100380.91;;;19.44;69.35
4085;BME280;2057;50.858;6.572;2022-08-25T04:52:38;100383.50;;;19.44;69.15
4085;BME280;2057;50.858;6.572;2022-08-25T04:55:03;100377.34;;;19.35;69.29
4085;BME280;2057;50.858;6.572;2022-08-25T04:57:29;100380.06;;;19.47;69.20
4085;BME280;2057;50.858;6.572;2022-08-25T04:59:54;100369.91;;;19.61;68.45
4085;BME280;2057;50.858;6.572;2022-08-25T05:02:20;100372.59;;;19.73;68.27
4085;BME280;2057;50.858;6.572;2022-08-25T05:04:46;100370.94;;;19.79;68.24
4085;BME280;2057;50.858;6.572;2022-08-25T05:07:11;100377.84;;;19.83;68.76
4085;BME280;2057;50.858;6.572;2022-08-25T05:09:36;100365.94;;;19.94;67.94
4085;BME280;2057;50.858;6.572;2022-08-25T05:12:02;100353.22;;;20.11;67.89
4085;BME280;2057;50.858;6.572;2022-08-25T05:14:28;100358.38;;;20.13;68.04
4085;BME280;2057;50.858;6.572;2022-08-25T05:16:54;100357.78;;;20.54;65.28
4085;BME280;2057;50.858;6.572;2022-08-25T05:19:20;100357.72;;;20.43;66.03
4085;BME280;2057;50.858;6.572;2022-08-25T05:21:46;100351.66;;;20.36;66.90
4085;BME280;2057;50.858;6.572;2022-08-25T05:24:12;100355.06;;;20.28;67.12
4085;BME280;2057;50.858;6.572;2022-08-25T05:26:37;100347.25;;;20.21;67.15
4085;BME280;2057;50.858;6.572;2022-08-25T05:29:04;100346.47;;;20.30;67.08
4085;BME280;2057;50.858;6.572;2022-08-25T05:31:30;100351.69;;;20.40;66.59
4085;BME280;2057;50.858;6.572;2022-08-25T05:33:57;100348.19;;;20.34;66.46
4085;BME280;2057;50.858;6.572;2022-08-25T05:36:26;100350.03;;;20.52;65.91
4085;BME280;2057;50.858;6.572;2022-08-25T05:38:52;100342.31;;;20.52;65.75
4085;BME280;2057;50.858;6.572;2022-08-25T05:41:20;100338.84;;;20.49;66.21
4085;BME280;2057;50.858;6.572;2022-08-25T05:43:47;100331.13;;;20.53;65.41
4085;BME280;2057;50.858;6.572;2022-08-25T05:46:14;100332.91;;;20.65;65.29
4085;BME280;2057;50.858;6.572;2022-08-25T05:48:40;100335.50;;;20.68;65.26
4085;BME280;2057;50.858;6.572;2022-08-25T05:51:07;100344.13;;;20.72;65.14
4085;BME280;2057;50.858;6.572;2022-08-25T05:53:35;100347.59;;;20.74;64.78
4085;BME280;2057;50.858;6.572;2022-08-25T05:56:00;100349.28;;;20.72;65.54
4085;BME280;2057;50.858;6.572;2022-08-25T05:58:27;100339.81;;;20.71;65.46
4085;BME280;2057;50.858;6.572;2022-08-25T06:00:54;100342.41;;;20.71;64.70
4085;BME280;2057;50.858;6.572;2022-08-25T06:03:19;100350.19;;;20.79;64.58
4085;BME280;2057;50.858;6.572;2022-08-25T06:05:45;100343.22;;;20.68;65.10
4085;BME280;2057;50.858;6.572;2022-08-25T06:08:10;100351.03;;;20.78;65.33
4085;BME280;2057;50.858;6.572;2022-08-25T06:10:36;100342.47;;;20.77;65.54
4085;BME280;2057;50.858;6.572;2022-08-25T06:13:02;100344.09;;;20.67;65.81
4085;BME280;2057;50.858;6.572;2022-08-25T06:15:28;100347.56;;;20.71;65.95
4085;BME280;2057;50.858;6.572;2022-08-25T06:17:54;100350.19;;;20.79;66.63
4085;BME280;2057;50.858;6.572;2022-08-25T06:20:25;100355.25;;;20.63;67.75
4085;BME280;2057;50.858;6.572;2022-08-25T06:22:52;100347.63;;;20.82;67.27
4085;BME280;2057;50.858;6.572;2022-08-25T06:25:20;100351.13;;;20.92;67.61
4085;BME280;2057;50.858;6.572;2022-08-25T06:27:46;100357.16;;;20.95;67.42
4085;BME280;2057;50.858;6.572;2022-08-25T06:30:14;100358.94;;;21.15;66.47
4085;BME280;2057;50.858;6.572;2022-08-25T06:32:41;100356.41;;;21.24;67.16
4085;BME280;2057;50.858;6.572;2022-08-25T06:35:09;100356.41;;;21.27;66.66
4085;BME280;2057;50.858;6.572;2022-08-25T06:37:35;100352.06;;;21.20;66.46
4085;BME280;2057;50.858;6.572;2022-08-25T06:40:00;100347.81;;;21.31;66.46
4085;BME280;2057;50.858;6.572;2022-08-25T06:42:26;100349.53;;;21.43;66.87
4085;BME280;2057;50.858;6.572;2022-08-25T06:44:52;100347.91;;;21.58;66.15
4085;BME280;2057;50.858;6.572;2022-08-25T06:47:17;100357.34;;;21.54;66.96
4085;BME280;2057;50.858;6.572;2022-08-25T06:49:43;100364.19;;;21.55;66.00
4085;BME280;2057;50.858;6.572;2022-08-25T06:52:09;100357.34;;;21.59;66.33
4085;BME280;2057;50.858;6.572;2022-08-25T06:54:35;100354.75;;;21.59;66.47
4085;BME280;2057;50.858;6.572;2022-08-25T06:57:01;100355.66;;;21.72;65.89
4085;BME280;2057;50.858;6.572;2022-08-25T06:59:26;100353.94;;;21.83;65.25
4085;BME280;2057;50.858;6.572;2022-08-25T07:01:52;100358.25;;;21.89;66.24
4085;BME280;2057;50.858;6.572;2022-08-25T07:04:18;100356.50;;;21.89;64.75
4085;BME280;2057;50.858;6.572;2022-08-25T07:06:43;100355.66;;;21.92;65.66
4085;BME280;2057;50.858;6.572;2022-08-25T07:09:10;100360.84;;;21.98;65.39
4085;BME280;2057;50.858;6.572;2022-08-25T07:11:35;100350.47;;;22.00;64.94
4085;BME280;2057;50.858;6.572;2022-08-25T07:14:02;100353.09;;;22.06;64.09
4085;BME280;2057;50.858;6.572;2022-08-25T07:16:28;100353.06;;;22.09;64.71
4085;BME280;2057;50.858;6.572;2022-08-25T07:18:56;100352.19;;;22.29;64.08
4085;BME280;2057;50.858;6.572;2022-08-25T07:21:23;100351.31;;;22.33;63.96
4085;BME280;2057;50.858;6.572;2022-08-25T07:23:49;100353.91;;;22.50;63.22
4085;BME280;2057;50.858;6.572;2022-08-25T07:26:21;100354.75;;;22.50;62.69
4085;BME280;2057;50.858;6.572;2022-08-25T07:28:47;100359.91;;;22.61;61.92
4085;BME280;2057;50.858;6.572;2022-08-25T07:31:13;100362.50;;;22.60;62.65
4085;BME280;2057;50.858;6.572;2022-08-25T07:33:38;100348.66;;;22.65;62.39
4085;BME280;2057;50.858;6.572;2022-08-25T07:36:24;100352.94;;;22.77;61.49
4085;BME280;2057;50.858;6.572;2022-08-25T07:38:49;100352.91;;;22.93;60.33
4085;BME280;2057;50.858;6.572;2022-08-25T07:41:15;100357.19;;;22.97;60.43
4085;BME280;2057;50.858;6.572;2022-08-25T07:43:41;100358.00;;;23.05;60.81
4085;BME280;2057;50.858;6.572;2022-08-25T07:46:06;100362.31;;;23.11;60.33
4085;BME280;2057;50.858;6.572;2022-08-25T07:48:31;100355.38;;;23.22;59.79
4085;BME280;2057;50.858;6.572;2022-08-25T07:50:57;100361.34;;;23.40;59.52
4085;BME280;2057;50.858;6.572;2022-08-25T07:53:22;100351.72;;;23.54;59.08
4085;BME280;2057;50.858;6.572;2022-08-25T07:55:47;100355.16;;;23.55;59.25
4085;BME280;2057;50.858;6.572;2022-08-25T07:58:13;100350.78;;;23.66;58.77
4085;BME280;2057;50.858;6.572;2022-08-25T08:00:39;100348.03;;;23.85;56.76
4085;BME280;2057;50.858;6.572;2022-08-25T08:03:06;100342.81;;;23.97;56.11
4085;BME280;2057;50.858;6.572;2022-08-25T08:05:33;100338.38;;;24.07;56.06
4085;BME280;2057;50.858;6.572;2022-08-25T08:07:59;100334.72;;;24.28;53.94
4085;BME280;2057;50.858;6.572;2022-08-25T08:10:25;100329.44;;;24.37;54.30
4085;BME280;2057;50.858;6.572;2022-08-25T08:12:51;100322.34;;;24.52;54.30
4085;BME280;2057;50.858;6.572;2022-08-25T08:15:17;100323.97;;;24.59;53.76
4085;BME280;2057;50.858;6.572;2022-08-25T08:17:43;100328.25;;;24.65;53.66
4085;BME280;2057;50.858;6.572;2022-08-25T08:20:09;100325.44;;;24.85;53.69
4085;BME280;2057;50.858;6.572;2022-08-25T08:22:37;100320.22;;;24.85;53.10
4085;BME280;2057;50.858;6.572;2022-08-25T08:25:03;100318.47;;;24.87;52.87
4085;BME280;2057;50.858;6.572;2022-08-25T08:27:28;100324.31;;;25.04;52.19
4085;BME280;2057;50.858;6.572;2022-08-25T08:29:54;100327.66;;;25.13;52.58
4085;BME280;2057;50.858;6.572;2022-08-25T08:32:20;100325.53;;;25.43;52.04
4085;BME280;2057;50.858;6.572;2022-08-25T08:34:45;100318.38;;;25.57;51.57
4085;BME280;2057;50.858;6.572;2022-08-25T08:37:12;100320.75;;;25.71;50.97
4085;BME280;2057;50.858;6.572;2022-08-25T08:39:38;100304.03;;;25.86;51.36
4085;BME280;2057;50.858;6.572;2022-08-25T08:44:58;100305.31;;;26.13;51.32
4085;BME280;2057;50.858;6.572;2022-08-25T08:55:57;100286.34;;;26.52;49.92
4085;BME280;2057;50.858;6.572;2022-08-25T08:58:39;100288.88;;;26.55;50.05
4085;BME280;2057;50.858;6.572;2022-08-25T09:01:07;100284.38;;;26.64;50.14
4085;BME280;2057;50.858;6.572;2022-08-25T09:03:36;100290.97;;;26.82;50.51
4085;BME280;2057;50.858;6.572;2022-08-25T09:06:08;100276.16;;;26.84;49.96
4085;BME280;2057;50.858;6.572;2022-08-25T09:08:36;100281.13;;;26.95;50.29
4085;BME280;2057;50.858;6.572;2022-08-25T09:11:15;100284.56;;;26.97;49.63
4085;BME280;2057;50.858;6.572;2022-08-25T09:16:57;100271.00;;;27.20;50.04
4085;BME280;2057;50.858;6.572;2022-08-25T09:30:04;100268.97;;;27.33;48.77
4085;BME280;2057;50.858;6.572;2022-08-25T09:32:34;100270.50;;;27.40;49.37
4085;BME280;2057;50.858;6.572;2022-08-25T09:35:14;100269.81;;;27.69;49.88
4085;BME280;2057;50.858;6.572;2022-08-25T09:37:42;100265.06;;;27.85;49.06
4085;BME280;2057;50.858;6.572;2022-08-25T09:40:08;100266.56;;;27.94;49.23
4085;BME280;2057;50.858;6.572;2022-08-25T09:42:50;100266.44;;;27.99;49.37
4085;BME280;2057;50.858;6.572;2022-08-25T09:45:42;100266.03;;;28.14;49.08
4085;BME280;2057;50.858;6.572;2022-08-25T09:48:30;100268.81;;;28.40;48.49
4085;BME280;2057;50.858;6.572;2022-08-25T09:51:22;100256.78;;;28.34;48.66
4085;BME280;2057;50.858;6.572;2022-08-25T09:56:57;100256.66;;;28.07;48.87
4085;BME280;2057;50.858;6.572;2022-08-25T09:59:34;100256.25;;;28.53;47.01
4085;BME280;2057;50.858;6.572;2022-08-25T10:04:29;100247.13;;;28.66;46.90
4085;BME280;2057;50.858;6.572;2022-08-25T10:06:59;100246.50;;;28.58;46.32
4085;BME280;2057;50.858;6.572;2022-08-25T10:09:35;100241.22;;;28.91;45.31
4085;BME280;2057;50.858;6.572;2022-08-25T10:12:15;100237.06;;;29.10;44.79
4085;BME280;2057;50.858;6.572;2022-08-25T10:14:42;100239.00;;;29.05;44.47
4085;BME280;2057;50.858;6.572;2022-08-25T10:17:26;100235.19;;;29.16;44.22
4085;BME280;2057;50.858;6.572;2022-08-25T10:20:20;100228.75;;;29.26;43.60
4085;BME280;2057;50.858;6.572;2022-08-25T10:22:47;100221.47;;;29.36;44.77
4085;BME280;2057;50.858;6.572;2022-08-25T10:25:14;100222.66;;;29.52;44.60
4085;BME280;2057;50.858;6.572;2022-08-25T10:27:58;100217.28;;;29.57;45.00
4085;BME280;2057;50.858;6.572;2022-08-25T10:30:29;100222.78;;;29.74;44.08
4085;BME280;2057;50.858;6.572;2022-08-25T10:36:14;100216.44;;;30.05;42.98
4085;BME280;2057;50.858;6.572;2022-08-25T10:38:44;100210.66;;;30.21;43.35
4085;BME280;2057;50.858;6.572;2022-08-25T10:49:47;100190.31;;;30.28;42.19
4085;BME280;2057;50.858;6.572;2022-08-25T10:52:36;100196.81;;;30.41;41.73
4085;BME280;2057;50.858;6.572;2022-08-25T10:57:35;100182.53;;;30.48;41.15
4085;BME280;2057;50.858;6.572;2022-08-25T11:00:07;100184.66;;;30.62;39.54
4085;BME280;2057;50.858;6.572;2022-08-25T11:05:46;100178.69;;;30.81;40.98
4085;BME280;2057;50.858;6.572;2022-08-25T11:08:35;100164.84;;;30.77;41.23
4085;BME280;2057;50.858;6.572;2022-08-25T11:13:55;100164.59;;;30.83;41.03
4085;BME280;2057;50.858;6.572;2022-08-25T11:22:12;100157.25;;;31.14;39.11
4085;BME280;2057;50.858;6.572;2022-08-25T11:27:56;100153.75;;;30.91;39.53
4085;BME280;2057;50.858;6.572;2022-08-25T11:30:23;100155.66;;;30.88;39.84
4085;BME280;2057;50.858;6.572;2022-08-25T11:32:50;100152.41;;;31.25;38.86
4085;BME280;2057;50.858;6.572;2022-08-25T11:35:25;100151.25;;;31.31;39.00
4085;BME280;2057;50.858;6.572;2022-08-25T11:46:56;100138.44;;;31.03;39.88
4085;BME280;2057;50.858;6.572;2022-08-25T11:52:40;100125.22;;;31.68;39.27
4085;BME280;2057;50.858;6.572;2022-08-25T11:55:11;100123.44;;;31.87;38.01
4085;BME280;2057;50.858;6.572;2022-08-25T11:57:38;100123.66;;;32.02;38.85
4085;BME280;2057;50.858;6.572;2022-08-25T12:00:12;100121.31;;;32.15;37.91
4085;BME280;2057;50.858;6.572;2022-08-25T12:02:47;100120.75;;;32.08;37.63
4085;BME280;2057;50.858;6.572;2022-08-25T12:10:17;100119.44;;;32.17;37.93
4085;BME280;2057;50.858;6.572;2022-08-25T12:17:38;100106.56;;;32.12;38.07
4085;BME280;2057;50.858;6.572;2022-08-25T12:20:04;100106.25;;;32.37;37.02
4085;BME280;2057;50.858;6.572;2022-08-25T12:25:12;100092.13;;;32.58;36.86
4085;BME280;2057;50.858;6.572;2022-08-25T12:28:03;100092.75;;;32.45;36.98
4085;BME280;2057;50.858;6.572;2022-08-25T12:30:45;100096.06;;;32.49;36.61
4085;BME280;2057;50.858;6.572;2022-08-25T12:36:05;100095.66;;;32.57;36.50
4085;BME280;2057;50.858;6.572;2022-08-25T12:38:49;100095.34;;;32.82;36.92
4085;BME280;2057;50.858;6.572;2022-08-25T12:41:18;100094.50;;;32.99;36.46
4085;BME280;2057;50.858;6.572;2022-08-25T12:43:47;100103.59;;;33.09;35.75
4085;BME280;2057;50.858;6.572;2022-08-25T12:52:24;100088.56;;;33.11;36.21
4085;BME280;2057;50.858;6.572;2022-08-25T12:55:06;100083.91;;;33.34;35.79
4085;BME280;2057;50.858;6.572;2022-08-25T12:57:55;100080.78;;;33.43;35.22
4085;BME280;2057;50.858;6.572;2022-08-25T13:00:32;100082.00;;;33.20;35.37
4085;BME280;2057;50.858;6.572;2022-08-25T13:06:11;100085.50;;;33.70;35.63
4085;BME280;2057;50.858;6.572;2022-08-25T13:11:19;100069.59;;;33.56;34.53
4085;BME280;2057;50.858;6.572;2022-08-25T13:14:00;100070.63;;;33.53;35.48
4085;BME280;2057;50.858;6.572;2022-08-25T13:16:28;100063.44;;;33.73;34.88
4085;BME280;2057;50.858;6.572;2022-08-25T13:18:55;100053.84;;;33.88;34.85
4085;BME280;2057;50.858;6.572;2022-08-25T13:21:33;100059.94;;;33.72;33.95
4085;BME280;2057;50.858;6.572;2022-08-25T13:24:00;100057.38;;;33.55;34.79
4085;BME280;2057;50.858;6.572;2022-08-25T13:26:29;100048.69;;;33.37;33.96
4085;BME280;2057;50.858;6.572;2022-08-25T13:31:32;100049.59;;;34.01;34.83
4085;BME280;2057;50.858;6.572;2022-08-25T13:34:00;100044.69;;;34.25;34.25
4085;BME280;2057;50.858;6.572;2022-08-25T13:36:31;100043.50;;;34.47;33.11
4085;BME280;2057;50.858;6.572;2022-08-25T13:39:19;100039.72;;;34.51;34.17
4085;BME280;2057;50.858;6.572;2022-08-25T13:41:50;100043.06;;;34.69;33.72
4085;BME280;2057;50.858;6.572;2022-08-25T13:44:18;100047.53;;;34.83;33.06
4085;BME280;2057;50.858;6.572;2022-08-25T13:46:44;100041.38;;;34.83;32.66
4085;BME280;2057;50.858;6.572;2022-08-25T13:49:11;100038.63;;;34.70;32.61
4085;BME280;2057;50.858;6.572;2022-08-25T13:51:48;100037.97;;;34.66;32.24
4085;BME280;2057;50.858;6.572;2022-08-25T13:54:25;100039.22;;;34.75;32.56
4085;BME280;2057;50.858;6.572;2022-08-25T13:56:51;100040.50;;;34.98;32.69
4085;BME280;2057;50.858;6.572;2022-08-25T13:59:25;100032.78;;;35.24;32.04
4085;BME280;2057;50.858;6.572;2022-08-25T14:01:54;100029.09;;;35.12;32.08
4085;BME280;2057;50.858;6.572;2022-08-25T14:15:09;100017.13;;;35.21;32.15
4085;BME280;2057;50.858;6.572;2022-08-25T14:17:37;100016.25;;;35.49;31.51
4085;BME280;2057;50.858;6.572;2022-08-25T14:20:04;100007.09;;;35.55;31.21
4085;BME280;2057;50.858;6.572;2022-08-25T14:22:30;100012.75;;;35.63;31.08
4085;BME280;2057;50.858;6.572;2022-08-25T14:24:56;100017.28;;;35.61;31.33
4085;BME280;2057;50.858;6.572;2022-08-25T14:27:21;100012.25;;;35.71;31.13
4085;BME280;2057;50.858;6.572;2022-08-25T14:29:47;100003.63;;;36.09;30.80
4085;BME280;2057;50.858;6.572;2022-08-25T14:32:14;100004.28;;;36.13;30.46
4085;BME280;2057;50.858;6.572;2022-08-25T14:34:41;100007.16;;;36.23;30.88
4085;BME280;2057;50.858;6.572;2022-08-25T14:37:18;100006.38;;;36.48;30.07
4085;BME280;2057;50.858;6.572;2022-08-25T14:39:44;100011.31;;;36.40;29.66
4085;BME280;2057;50.858;6.572;2022-08-25T14:42:10;100003.22;;;36.43;30.20
4085;BME280;2057;50.858;6.572;2022-08-25T14:44:36;99997.38;;;35.98;30.41
4085;BME280;2057;50.858;6.572;2022-08-25T14:47:02;99998.75;;;35.05;31.26
4085;BME280;2057;50.858;6.572;2022-08-25T14:49:30;99998.53;;;35.93;30.92
4085;BME280;2057;50.858;6.572;2022-08-25T14:52:05;99996.69;;;35.10;32.16
4085;BME280;2057;50.858;6.572;2022-08-25T14:54:31;99998.41;;;35.68;31.32
4085;BME280;2057;50.858;6.572;2022-08-25T14:56:56;100005.00;;;36.02;31.04
4085;BME280;2057;50.858;6.572;2022-08-25T14:59:22;99998.06;;;36.54;30.77
4085;BME280;2057;50.858;6.572;2022-08-25T15:01:47;99993.47;;;36.82;29.44
4085;BME280;2057;50.858;6.572;2022-08-25T15:04:18;99985.88;;;36.91;30.07
4085;BME280;2057;50.858;6.572;2022-08-25T15:06:44;99991.06;;;36.66;30.06
4085;BME280;2057;50.858;6.572;2022-08-25T15:09:12;99987.16;;;36.72;30.64
4085;BME280;2057;50.858;6.572;2022-08-25T15:11:45;99988.34;;;36.27;30.75
4085;BME280;2057;50.858;6.572;2022-08-25T15:14:13;99976.16;;;36.25;30.26
4085;BME280;2057;50.858;6.572;2022-08-25T15:16:47;99977.50;;;36.45;30.99